createdAt,value
2022-12-08T00:02:26.896Z,82.52
2022-12-08T00:17:29.914Z,82.53
2022-12-08T00:32:32.660Z,82.34
2022-12-08T00:47:36.062Z,82.05
2022-12-08T01:02:38.817Z,82.38
2022-12-08T01:17:41.770Z,82.35
2022-12-08T01:32:44.685Z,82.93
2022-12-08T01:47:51.500Z,82.60
2022-12-08T02:03:02.306Z,82.56
2022-12-08T02:19:31.464Z,82.72
2022-12-08T02:34:52.432Z,82.81
2022-12-08T02:49:57.068Z,83.12
2022-12-08T03:05:42.854Z,83.05
2022-12-08T03:20:47.148Z,82.56
2022-12-08T03:35:51.312Z,82.93
2022-12-08T03:50:54.112Z,83.31
2022-12-08T04:05:57.302Z,83.58
2022-12-08T04:21:15.116Z,82.57
2022-12-08T04:36:17.655Z,82.66
2022-12-08T04:51:34.760Z,82.77
2022-12-08T05:06:37.759Z,82.95
2022-12-08T05:21:41.352Z,83.27
2022-12-08T05:36:44.096Z,82.97
2022-12-08T06:02:51.855Z,82.32
2022-12-08T06:17:54.731Z,83.01
2022-12-08T06:32:57.354Z,83.17
2022-12-08T06:48:01.760Z,83.27
2022-12-08T07:03:04.613Z,83.45
2022-12-08T07:18:07.467Z,83.99
2022-12-08T07:33:09.804Z,84.08
2022-12-08T07:48:27.625Z,84.39
2022-12-08T08:03:30.315Z,84.50
2022-12-08T08:18:34.980Z,84.39
2022-12-08T08:33:37.374Z,84.61
2022-12-08T08:48:54.803Z,85.01
2022-12-08T09:03:58.571Z,85.14
2022-12-08T09:19:01.896Z,85.18
2022-12-08T09:34:19.045Z,85.20
2022-12-08T09:49:49.412Z,85.62
2022-12-08T10:04:56.176Z,85.34
2022-12-08T10:20:17.614Z,85.56
2022-12-08T10:35:24.941Z,85.38
2022-12-08T10:50:31.602Z,85.47
2022-12-08T11:05:36.492Z,85.13
2022-12-08T11:20:41.458Z,85.06
2022-12-08T11:35:51.077Z,85.32
2022-12-08T11:51:19.002Z,85.59
2022-12-08T12:06:55.450Z,85.53
2022-12-08T12:22:19.574Z,85.32
2022-12-08T12:37:38.247Z,85.03
2022-12-08T12:52:42.488Z,84.66
2022-12-08T13:07:56.979Z,84.91
2022-12-08T13:23:47.690Z,84.80
2022-12-08T13:38:59.515Z,84.34
2022-12-08T14:10:19.241Z,84.07
2022-12-08T14:25:25.371Z,84.31
2022-12-08T14:44:39.675Z,84.36
2022-12-08T14:59:45.459Z,84.06
2022-12-08T15:15:09.941Z,83.79
2022-12-08T15:30:15.844Z,83.75
2022-12-08T15:45:26.299Z,83.98
2022-12-08T16:16:20.212Z,83.95
2022-12-08T16:31:23.603Z,83.94
2022-12-08T16:46:27.925Z,83.93
2022-12-08T17:01:31.245Z,83.67
2022-12-08T17:16:34.789Z,83.98
2022-12-08T17:31:37.972Z,83.92
2022-12-08T17:46:46.400Z,83.90
2022-12-08T18:01:55.775Z,83.83
2022-12-08T18:16:58.674Z,83.98
2022-12-08T18:32:01.277Z,83.50
2022-12-08T18:47:19.224Z,83.58
2022-12-08T19:02:22.786Z,83.35
2022-12-08T19:17:26.113Z,83.30
2022-12-08T19:32:30.602Z,83.39
2022-12-08T19:47:33.612Z,83.22
2022-12-08T20:02:51.913Z,83.01
2022-12-08T20:17:54.807Z,83.43
2022-12-08T20:32:57.630Z,83.84
2022-12-08T20:48:00.495Z,83.62
2022-12-08T21:03:03.897Z,83.44
2022-12-08T21:18:07.023Z,83.90
2022-12-08T21:33:10.226Z,84.30
2022-12-08T21:48:13.286Z,84.34
2022-12-08T22:03:17.949Z,83.69
2022-12-08T22:18:21.158Z,83.61
2022-12-08T22:33:24.796Z,83.84
